sensor_id;sensor_type;location;lat;lon;timestamp;pressure;altitude;pressure_sealevel;temperature;humidity
50696;BME280;36665;51.786;21.594;2022-12-07T00:06:59;91874.80;;;1.17;82.07
50696;BME280;36665;51.786;21.594;2022-12-07T00:15:20;91896.94;;;1.24;82.05
50696;BME280;36665;51.786;21.594;2022-12-07T00:23:44;91892.77;;;1.22;82.28
50696;BME280;36665;51.786;21.594;2022-12-07T00:32:05;91859.00;;;1.14;82.20
50696;BME280;36665;51.786;21.594;2022-12-07T00:40:27;91842.13;;;1.09;82.08
50696;BME280;36665;51.786;21.594;2022-12-07T00:48:49;91855.52;;;1.12;82.07
50696;BME280;36665;51.786;21.594;2022-12-07T00:57:11;91883.52;;;1.19;81.91
50696;BME280;36665;51.786;21.594;2022-12-07T01:05:33;91884.17;;;1.19;82.08
50696;BME280;36665;51.786;21.594;2022-12-07T01:13:56;91858.53;;;1.13;82.07
50696;BME280;36665;51.786;21.594;2022-12-07T01:22:18;91862.52;;;1.13;81.92
50696;BME280;36665;51.786;21.594;2022-12-07T01:30:40;91888.90;;;1.20;82.11
50696;BME280;36665;51.786;21.594;2022-12-07T01:39:05;91885.23;;;1.19;82.15
50696;BME280;36665;51.786;21.594;2022-12-07T01:47:28;91866.67;;;1.14;82.20
50696;BME280;36665;51.786;21.594;2022-12-07T01:55:52;91853.59;;;1.11;82.19
50696;BME280;36665;51.786;21.594;2022-12-07T02:04:15;91858.45;;;1.12;82.11
50696;BME280;36665;51.786;21.594;2022-12-07T02:12:36;91856.80;;;1.11;82.04
50696;BME280;36665;51.786;21.594;2022-12-07T02:21:13;91811.48;;;1.00;81.92
50696;BME280;36665;51.786;21.594;2022-12-07T02:29:57;91779.71;;;0.91;82.14
50696;BME280;36665;51.786;21.594;2022-12-07T02:38:28;91763.19;;;0.86;82.16
50696;BME280;36665;51.786;21.594;2022-12-07T02:46:56;91728.15;;;0.76;82.20
50696;BME280;36665;51.786;21.594;2022-12-07T02:55:24;91691.10;;;0.66;81.98
50696;BME280;36665;51.786;21.594;2022-12-07T03:04:55;91681.39;;;0.63;82.10
50696;BME280;36665;51.786;21.594;2022-12-07T03:12:51;91639.03;;;0.53;82.05
50696;BME280;36665;51.786;21.594;2022-12-07T03:21:22;91617.77;;;0.47;82.09
50696;BME280;36665;51.786;21.594;2022-12-07T03:30:02;91620.27;;;0.47;81.95
50696;BME280;36665;51.786;21.594;2022-12-07T03:38:31;91600.02;;;0.41;81.91
50696;BME280;36665;51.786;21.594;2022-12-07T03:47:05;91580.89;;;0.37;81.88
50696;BME280;36665;51.786;21.594;2022-12-07T03:55:34;91586.33;;;0.37;81.82
50696;BME280;36665;51.786;21.594;2022-12-07T04:03:57;91564.81;;;0.31;81.86
50696;BME280;36665;51.786;21.594;2022-12-07T04:12:18;91540.02;;;0.24;81.84
50696;BME280;36665;51.786;21.594;2022-12-07T04:20:40;91542.84;;;0.26;82.03
50696;BME280;36665;51.786;21.594;2022-12-07T04:29:02;91565.55;;;0.32;81.91
50696;BME280;36665;51.786;21.594;2022-12-07T04:37:28;91555.79;;;0.30;81.88
50696;BME280;36665;51.786;21.594;2022-12-07T04:45:50;91536.15;;;0.24;82.06
50696;BME280;36665;51.786;21.594;2022-12-07T04:54:14;91537.18;;;0.24;81.94
50696;BME280;36665;51.786;21.594;2022-12-07T05:02:36;91554.95;;;0.28;81.92
50696;BME280;36665;51.786;21.594;2022-12-07T05:10:57;91558.06;;;0.29;81.91
50696;BME280;36665;51.786;21.594;2022-12-07T05:19:19;91547.02;;;0.26;81.84
50696;BME280;36665;51.786;21.594;2022-12-07T05:27:40;91540.13;;;0.24;81.91
50696;BME280;36665;51.786;21.594;2022-12-07T05:36:02;91568.17;;;0.32;82.09
50696;BME280;36665;51.786;21.594;2022-12-07T05:44:26;91586.89;;;0.37;81.96
50696;BME280;36665;51.786;21.594;2022-12-07T05:52:48;91570.02;;;0.31;82.09
50696;BME280;36665;51.786;21.594;2022-12-07T06:01:09;91567.88;;;0.32;82.05
50696;BME280;36665;51.786;21.594;2022-12-07T06:09:31;91586.02;;;0.37;81.95
50696;BME280;36665;51.786;21.594;2022-12-07T06:17:53;91578.81;;;0.35;82.15
50696;BME280;36665;51.786;21.594;2022-12-07T06:26:15;91560.88;;;0.30;82.05
50696;BME280;36665;51.786;21.594;2022-12-07T06:34:36;91534.74;;;0.23;82.11
50696;BME280;36665;51.786;21.594;2022-12-07T06:42:58;91519.29;;;0.18;82.07
50696;BME280;36665;51.786;21.594;2022-12-07T06:51:19;91505.80;;;0.14;81.92
50696;BME280;36665;51.786;21.594;2022-12-07T06:59:41;91466.18;;;0.04;81.81
50696;BME280;36665;51.786;21.594;2022-12-07T07:08:03;91439.19;;;-0.04;81.91
50696;BME280;36665;51.786;21.594;2022-12-07T07:16:45;91434.36;;;-0.05;81.98
50696;BME280;36665;51.786;21.594;2022-12-07T07:25:06;91411.83;;;-0.11;82.06
50696;BME280;36665;51.786;21.594;2022-12-07T07:33:28;91405.42;;;-0.11;82.02
50696;BME280;36665;51.786;21.594;2022-12-07T07:41:49;91418.11;;;-0.09;81.97
50696;BME280;36665;51.786;21.594;2022-12-07T07:50:14;91424.09;;;-0.08;81.93
50696;BME280;36665;51.786;21.594;2022-12-07T07:58:36;91393.39;;;-0.16;81.82
50696;BME280;36665;51.786;21.594;2022-12-07T08:07:00;91386.31;;;-0.18;81.95
50696;BME280;36665;51.786;21.594;2022-12-07T08:15:22;91406.19;;;-0.13;82.02
50696;BME280;36665;51.786;21.594;2022-12-07T08:23:44;91411.27;;;-0.11;81.92
50696;BME280;36665;51.786;21.594;2022-12-07T08:32:05;91394.75;;;-0.16;81.88
50696;BME280;36665;51.786;21.594;2022-12-07T08:40:31;91396.81;;;-0.16;81.91
50696;BME280;36665;51.786;21.594;2022-12-07T08:48:57;91417.39;;;-0.10;81.88
50696;BME280;36665;51.786;21.594;2022-12-07T08:57:20;91422.16;;;-0.07;81.88
50696;BME280;36665;51.786;21.594;2022-12-07T09:05:42;91410.55;;;-0.11;81.98
50696;BME280;36665;51.786;21.594;2022-12-07T09:14:03;91408.95;;;-0.11;81.80
50696;BME280;36665;51.786;21.594;2022-12-07T09:22:28;91438.52;;;-0.03;82.12
50696;BME280;36665;51.786;21.594;2022-12-07T09:30:50;91485.55;;;0.10;82.12
50696;BME280;36665;51.786;21.594;2022-12-07T09:39:31;91500.27;;;0.13;82.03
50696;BME280;36665;51.786;21.594;2022-12-07T09:47:53;91519.80;;;0.19;82.08
50696;BME280;36665;51.786;21.594;2022-12-07T09:56:18;91551.78;;;0.27;82.28
50696;BME280;36665;51.786;21.594;2022-12-07T10:04:42;91571.94;;;0.32;82.14
50696;BME280;36665;51.786;21.594;2022-12-07T10:13:08;91606.39;;;0.42;82.28
50696;BME280;36665;51.786;21.594;2022-12-07T10:21:30;91660.16;;;0.57;82.28
50696;BME280;36665;51.786;21.594;2022-12-07T10:29:52;91696.96;;;0.67;82.26
50696;BME280;36665;51.786;21.594;2022-12-07T10:38:16;91728.65;;;0.75;82.23
50696;BME280;36665;51.786;21.594;2022-12-07T11:38:15;91901.01;;;1.20;82.49
50696;BME280;36665;51.786;21.594;2022-12-07T11:46:50;91909.13;;;1.23;82.52
50696;BME280;36665;51.786;21.594;2022-12-07T11:55:28;91922.67;;;1.27;82.56
50696;BME280;36665;51.786;21.594;2022-12-07T12:03:56;91910.54;;;1.24;82.65
50696;BME280;36665;51.786;21.594;2022-12-07T12:12:48;91915.11;;;1.25;82.67
50696;BME280;36665;51.786;21.594;2022-12-07T12:21:36;91933.56;;;1.30;82.62
50696;BME280;36665;51.786;21.594;2022-12-07T12:30:01;91935.41;;;1.30;82.58
50696;BME280;36665;51.786;21.594;2022-12-07T12:38:32;91948.62;;;1.34;82.70
50696;BME280;36665;51.786;21.594;2022-12-07T12:46:59;91969.02;;;1.39;82.79
50696;BME280;36665;51.786;21.594;2022-12-07T12:56:19;91945.05;;;1.33;82.82
50696;BME280;36665;51.786;21.594;2022-12-07T13:04:23;91909.64;;;1.23;82.59
50696;BME280;36665;51.786;21.594;2022-12-07T13:21:43;91873.58;;;1.13;82.73
50696;BME280;36665;51.786;21.594;2022-12-07T13:30:17;91851.72;;;1.07;82.57
50696;BME280;36665;51.786;21.594;2022-12-07T13:38:49;91825.13;;;0.99;82.52
50696;BME280;36665;51.786;21.594;2022-12-07T13:47:23;91813.04;;;0.97;82.34
50696;BME280;36665;51.786;21.594;2022-12-07T13:55:50;91820.31;;;0.99;82.54
50696;BME280;36665;51.786;21.594;2022-12-07T14:04:35;91814.40;;;0.97;82.38
50696;BME280;36665;51.786;21.594;2022-12-07T14:12:57;91804.63;;;0.95;82.42
50696;BME280;36665;51.786;21.594;2022-12-07T14:21:22;91803.48;;;0.94;82.42
50696;BME280;36665;51.786;21.594;2022-12-07T14:29:44;91795.15;;;0.93;82.50
50696;BME280;36665;51.786;21.594;2022-12-07T14:38:07;91783.98;;;0.90;82.35
50696;BME280;36665;51.786;21.594;2022-12-07T14:46:29;91787.14;;;0.90;82.33
50696;BME280;36665;51.786;21.594;2022-12-07T14:54:51;91777.39;;;0.88;82.37
50696;BME280;36665;51.786;21.594;2022-12-07T15:03:13;91745.88;;;0.80;82.33
50696;BME280;36665;51.786;21.594;2022-12-07T15:11:35;91735.44;;;0.76;82.38
50696;BME280;36665;51.786;21.594;2022-12-07T15:20:03;91734.56;;;0.76;82.49
50696;BME280;36665;51.786;21.594;2022-12-07T15:28:25;91711.83;;;0.69;82.42
50696;BME280;36665;51.786;21.594;2022-12-07T15:36:46;91686.66;;;0.62;82.22
50696;BME280;36665;51.786;21.594;2022-12-07T15:45:08;91666.52;;;0.56;82.16
50696;BME280;36665;51.786;21.594;2022-12-07T15:53:30;91647.89;;;0.51;82.28
50696;BME280;36665;51.786;21.594;2022-12-07T16:01:51;91649.26;;;0.52;82.36
50696;BME280;36665;51.786;21.594;2022-12-07T16:10:13;91642.05;;;0.50;82.27
50696;BME280;36665;51.786;21.594;2022-12-07T16:18:35;91622.06;;;0.44;82.08
50696;BME280;36665;51.786;21.594;2022-12-07T16:26:57;91614.66;;;0.43;82.19
50696;BME280;36665;51.786;21.594;2022-12-07T16:35:18;91638.70;;;0.48;82.28
50696;BME280;36665;51.786;21.594;2022-12-07T16:43:40;91653.14;;;0.53;82.48
50696;BME280;36665;51.786;21.594;2022-12-07T16:52:01;91644.56;;;0.50;82.45
50696;BME280;36665;51.786;21.594;2022-12-07T17:00:43;91638.55;;;0.48;82.17
50696;BME280;36665;51.786;21.594;2022-12-07T17:09:05;91646.64;;;0.51;82.23
50696;BME280;36665;51.786;21.594;2022-12-07T17:17:30;91610.45;;;0.41;82.26
50696;BME280;36665;51.786;21.594;2022-12-07T17:25:52;91531.19;;;0.19;82.13
50696;BME280;36665;51.786;21.594;2022-12-07T17:34:14;91461.73;;;0.01;82.11
50696;BME280;36665;51.786;21.594;2022-12-07T17:42:36;91448.69;;;-0.03;82.09
50696;BME280;36665;51.786;21.594;2022-12-07T17:51:01;91478.75;;;0.06;81.92
50696;BME280;36665;51.786;21.594;2022-12-07T17:59:41;91512.86;;;0.14;82.03
50696;BME280;36665;51.786;21.594;2022-12-07T18:08:04;91522.63;;;0.17;82.19
50696;BME280;36665;51.786;21.594;2022-12-07T18:16:28;91536.05;;;0.20;82.18
50696;BME280;36665;51.786;21.594;2022-12-07T18:24:50;91554.09;;;0.26;82.06
50696;BME280;36665;51.786;21.594;2022-12-07T18:33:11;91559.22;;;0.27;82.06
50696;BME280;36665;51.786;21.594;2022-12-07T18:41:33;91570.77;;;0.31;82.09
50696;BME280;36665;51.786;21.594;2022-12-07T18:49:55;91593.09;;;0.37;82.28
50696;BME280;36665;51.786;21.594;2022-12-07T18:58:16;91604.54;;;0.40;82.14
50696;BME280;36665;51.786;21.594;2022-12-07T19:06:41;91617.92;;;0.43;82.17
50696;BME280;36665;51.786;21.594;2022-12-07T19:15:04;91632.49;;;0.47;82.34
50696;BME280;36665;51.786;21.594;2022-12-07T19:23:27;91643.39;;;0.50;82.39
50696;BME280;36665;51.786;21.594;2022-12-07T19:31:49;91668.50;;;0.57;82.37
50696;BME280;36665;51.786;21.594;2022-12-07T19:40:13;91673.42;;;0.58;82.32
50696;BME280;36665;51.786;21.594;2022-12-07T19:48:36;91680.99;;;0.60;82.22
50696;BME280;36665;51.786;21.594;2022-12-07T19:56:58;91670.31;;;0.58;82.22
50696;BME280;36665;51.786;21.594;2022-12-07T20:05:23;91646.44;;;0.51;82.11
50696;BME280;36665;51.786;21.594;2022-12-07T20:13:45;91633.98;;;0.48;82.08
50696;BME280;36665;51.786;21.594;2022-12-07T20:22:07;91613.19;;;0.42;82.21
50696;BME280;36665;51.786;21.594;2022-12-07T20:30:28;91576.02;;;0.31;82.20
50696;BME280;36665;51.786;21.594;2022-12-07T20:38:50;91577.89;;;0.32;82.25
50696;BME280;36665;51.786;21.594;2022-12-07T20:47:12;91587.95;;;0.36;82.04
50696;BME280;36665;51.786;21.594;2022-12-07T20:55:34;91569.12;;;0.30;82.15
50696;BME280;36665;51.786;21.594;2022-12-07T21:03:57;91531.27;;;0.20;82.13
50696;BME280;36665;51.786;21.594;2022-12-07T21:12:19;91468.16;;;0.03;82.12
50696;BME280;36665;51.786;21.594;2022-12-07T21:20:41;91386.95;;;-0.20;82.03
50696;BME280;36665;51.786;21.594;2022-12-07T21:29:04;91328.80;;;-0.35;81.99
50696;BME280;36665;51.786;21.594;2022-12-07T21:37:26;91294.63;;;-0.46;82.04
50696;BME280;36665;51.786;21.594;2022-12-07T21:45:51;91239.02;;;-0.60;81.67
50696;BME280;36665;51.786;21.594;2022-12-07T21:54:13;91193.08;;;-0.73;81.79
50696;BME280;36665;51.786;21.594;2022-12-07T22:02:34;91166.64;;;-0.81;81.59
50696;BME280;36665;51.786;21.594;2022-12-07T22:11:00;91128.85;;;-0.91;81.79
50696;BME280;36665;51.786;21.594;2022-12-07T22:19:22;91108.17;;;-0.96;81.46
50696;BME280;36665;51.786;21.594;2022-12-07T22:27:44;91104.23;;;-0.98;81.57
50696;BME280;36665;51.786;21.594;2022-12-07T22:36:06;91074.21;;;-1.05;81.39
50696;BME280;36665;51.786;21.594;2022-12-07T22:44:28;91037.58;;;-1.15;81.48
50696;BME280;36665;51.786;21.594;2022-12-07T22:53:27;91024.24;;;-1.18;81.37
50696;BME280;36665;51.786;21.594;2022-12-07T23:02:25;91007.11;;;-1.23;81.34
50696;BME280;36665;51.786;21.594;2022-12-07T23:11:26;90979.73;;;-1.30;81.43
50696;BME280;36665;51.786;21.594;2022-12-07T23:20:43;90983.39;;;-1.29;81.38
50696;BME280;36665;51.786;21.594;2022-12-07T23:29:42;91006.23;;;-1.23;81.43
50696;BME280;36665;51.786;21.594;2022-12-07T23:38:41;91013.00;;;-1.21;81.40
50696;BME280;36665;51.786;21.594;2022-12-07T23:47:39;90991.20;;;-1.26;81.51
50696;BME280;36665;51.786;21.594;2022-12-07T23:56:38;91013.58;;;-1.20;81.42
